Old Harbor, Alaska
Current Conditions -  °F | °C
As of 1:56 AM on Thursday 23 Oct 2014 (Local Time) from PAKH Reporting Station
Clear Clear  
Wind Chill: 34°   Ceiling: Unl
Heat Index: 40°   Visibility: 10mi
Dew Point: 28°   Wind: 9mph
Humidity: 63%   Direction: 350°N
Pressure: 29.59"   Gusts: NA
Location:  57.2°N, 153.31°W
Report Text: PAKH 230956Z AUTO 35008KT 320V050 10SM CLR 04/M02 A2959 RMK AO2 TSNO T00441022 SLP022 $
Loading
Personal Weather Stations






























Interactive Weather Map
Tropical Storm Tracking
New forecast layout! Learn more

10-Day Weather Forecast

Advertisements
Track Severe Weather on mobile